Terminal Aerodrome Forecast
Issued by NWS

Home | Current Version | Previous Version | Graphics & Text | Print | Product List | Glossary On
Versions: 1 2 3 4 5 6 7 8 9 10 11 12
313
FTUS43 KGRB 152320
TAFCWA
TAF
KCWA 152320Z 1600/1624 28006KT P6SM SCT050 BKN090
     FM160800 26003KT P6SM SCT200
     FM161600 26009KT P6SM SCT200
     FM162300 22006KT P6SM SKC
      AMD LTD TO CLD VIS AND WIND 1603/1611=

USA.gov is the U.S. government's official web portal to all federal, state and local government web resources and services.